Time;durP1;ratioP1;P1;durP2;ratioP2;P2;SDS_P1;SDS_P2;PMS_P1;PMS_P2;Temp;Humidity;BMP_temperature;BMP_pressure;BME280_temperature;BME280_humidity;BME280_pressure;Samples;Min_cycle;Max_cycle;Signal;HPM_P1;HPM_P2
2022/05/17 00:00:38;;;;;;;2.03;1.80;;;15.70;72.00;;;;;;5033067;28;20417;-68
2022/05/17 00:03:04;;;;;;;4.50;2.10;;;15.60;65.90;;;;;;5034046;28;20763;-63
2022/05/17 00:05:30;;;;;;;5.33;2.63;;;15.50;69.30;;;;;;5034104;28;20269;-68
2022/05/17 00:07:56;;;;;;;3.30;2.70;;;15.50;75.40;;;;;;5033218;28;20715;-63
2022/05/17 00:10:23;;;;;;;3.60;2.47;;;15.40;81.00;;;;;;5033734;28;20410;-67
2022/05/17 00:12:50;;;;;;;1.80;1.70;;;15.40;84.70;;;;;;5033418;28;20414;-67
2022/05/17 00:15:18;;;;;;;2.50;1.60;;;15.40;92.30;;;;;;5033451;28;20414;-64
2022/05/17 00:17:45;;;;;;;2.20;1.67;;;15.40;94.00;;;;;;5032872;28;20436;-63
2022/05/17 00:20:11;;;;;;;3.00;1.97;;;15.40;94.10;;;;;;5033598;28;20406;-63
2022/05/17 00:22:37;;;;;;;2.40;2.20;;;15.40;94.00;;;;;;5032602;28;20418;-67
2022/05/17 00:25:04;;;;;;;2.50;2.00;;;15.40;94.10;;;;;;5033572;28;20433;-63
2022/05/17 00:27:30;;;;;;;6.90;2.10;;;15.40;94.00;;;;;;5032709;28;20186;-67
2022/05/17 00:29:56;;;;;;;4.93;2.10;;;15.20;93.90;;;;;;5033475;28;20410;-66
2022/05/17 00:32:21;;;;;;;3.47;2.20;;;15.20;97.30;;;;;;5033126;28;20403;-69
2022/05/17 00:34:48;;;;;;;2.93;2.33;;;15.20;99.70;;;;;;5033404;28;20175;-64
2022/05/17 00:37:14;;;;;;;2.57;2.27;;;15.20;99.90;;;;;;5032660;28;20660;-63
2022/05/17 00:39:40;;;;;;;3.03;2.27;;;15.20;99.90;;;;;;5033006;28;20930;-63
2022/05/17 00:42:06;;;;;;;4.57;3.30;;;15.20;99.90;;;;;;5032041;28;20444;-65
2022/05/17 00:44:45;;;;;;;4.60;2.87;;;15.20;99.90;;;;;;5033214;28;20168;-68
2022/05/17 00:47:29;;;;;;;7.10;2.80;;;15.20;99.90;;;;;;5032770;28;20433;-64
2022/05/17 00:50:04;;;;;;;4.43;2.80;;;15.20;99.90;;;;;;5033153;28;20771;-68
2022/05/17 00:53:02;;;;;;;2.83;2.23;;;15.20;99.90;;;;;;5032901;28;20886;-67
2022/05/17 00:55:32;;;;;;;2.80;2.60;;;15.20;99.90;;;;;;5033338;28;20484;-63
2022/05/17 00:58:01;;;;;;;3.53;2.27;;;15.20;99.90;;;;;;5032660;28;20488;-68
2022/05/17 01:00:32;;;;;;;4.40;3.07;;;15.20;99.90;;;;;;5033402;28;20398;-64
2022/05/17 01:03:02;;;;;;;2.83;2.53;;;15.20;99.90;;;;;;5033224;28;20402;-64
2022/05/17 01:05:32;;;;;;;2.70;2.40;;;15.20;99.90;;;;;;5032448;28;20436;-68
2022/05/17 01:07:59;;;;;;;2.50;2.30;;;15.20;99.90;;;;;;5032532;28;20760;-68
2022/05/17 01:10:28;;;;;;;2.57;2.47;;;15.10;99.90;;;;;;5032692;28;20418;-68
2022/05/17 01:15:39;;;;;;;5.03;2.93;;;15.00;99.90;;;;;;5033074;28;20417;-64
2022/05/17 01:18:05;;;;;;;3.27;3.07;;;14.90;99.90;;;;;;5032128;28;20468;-68
2022/05/17 01:20:32;;;;;;;3.47;3.17;;;14.70;99.90;;;;;;5033092;28;20937;-65
2022/05/17 01:22:59;;;;;;;2.87;2.67;;;14.60;99.90;;;;;;5032891;28;20454;-64
2022/05/17 01:25:28;;;;;;;3.00;2.80;;;14.40;99.90;;;;;;5033035;28;20406;-68
2022/05/17 01:28:01;;;;;;;2.70;2.50;;;14.20;99.90;;;;;;5031920;28;20445;-67
2022/05/17 01:30:30;;;;;;;2.60;2.40;;;13.90;99.90;;;;;;5032798;28;20385;-64
2022/05/17 01:32:56;;;;;;;2.60;2.40;;;13.70;99.90;;;;;;5032853;28;20377;-64
2022/05/17 01:35:22;;;;;;;4.50;2.83;;;13.50;99.90;;;;;;5033172;28;20453;-67
2022/05/17 01:37:56;;;;;;;2.87;2.67;;;13.50;99.90;;;;;;5032224;28;20482;-68
2022/05/17 01:40:23;;;;;;;4.33;3.20;;;13.50;99.90;;;;;;5032937;28;20452;-67
2022/05/17 01:42:49;;;;;;;6.83;3.57;;;13.50;99.90;;;;;;5032808;28;20773;-68
2022/05/17 01:45:15;;;;;;;3.43;2.73;;;13.60;99.90;;;;;;5031172;28;20895;-68
2022/05/17 01:47:41;;;;;;;3.93;2.53;;;13.60;99.90;;;;;;5031856;28;20487;-64
2022/05/17 01:50:08;;;;;;;3.00;2.67;;;13.60;99.90;;;;;;5032773;28;20186;-64
2022/05/17 01:52:34;;;;;;;3.00;2.80;;;13.50;99.90;;;;;;5033827;28;20496;-64
2022/05/17 01:54:59;;;;;;;4.50;2.80;;;13.30;99.90;;;;;;5036139;28;20966;-67
2022/05/17 01:57:25;;;;;;;4.23;3.33;;;13.10;99.90;;;;;;5034253;28;20226;-67
2022/05/17 01:59:50;;;;;;;5.63;2.57;;;13.00;99.90;;;;;;5036243;28;20172;-64
2022/05/17 02:02:16;;;;;;;6.27;3.50;;;12.80;99.90;;;;;;5035749;28;20647;-65
2022/05/17 02:04:42;;;;;;;3.43;3.23;;;12.60;99.90;;;;;;5036164;28;20175;-67
2022/05/17 02:07:08;;;;;;;3.70;3.40;;;12.50;99.90;;;;;;5035449;28;20172;-67
2022/05/17 02:09:34;;;;;;;3.80;3.47;;;12.50;99.90;;;;;;5035995;28;20199;-65
2022/05/17 02:12:00;;;;;;;3.07;2.87;;;12.40;99.90;;;;;;5035998;28;20388;-64
2022/05/17 02:14:25;;;;;;;7.13;3.90;;;12.40;1.00;;;;;;5036198;28;20589;-64
2022/05/17 02:16:51;;;;;;;3.87;3.00;;;12.40;1.00;;;;;;5034128;28;20239;-65
2022/05/17 02:19:19;;;;;;;5.20;4.70;;;12.30;1.00;;;;;;5034496;28;20745;-66
2022/05/17 02:21:46;;;;;;;3.53;3.23;;;12.30;1.00;;;;;;5035425;28;20174;-67
2022/05/17 02:24:12;;;;;;;5.07;3.97;;;12.30;1.00;;;;;;5035730;28;20381;-66
2022/05/17 02:26:38;;;;;;;4.40;4.10;;;12.30;1.00;;;;;;5035105;28;20382;-65
2022/05/17 02:29:04;;;;;;;3.93;3.57;;;12.30;1.00;;;;;;5035614;28;20488;-67
2022/05/17 02:31:30;;;;;;;7.20;3.40;;;12.30;1.00;;;;;;5035544;28;20183;-65
2022/05/17 02:33:56;;;;;;;2.90;2.60;;;12.40;1.00;;;;;;5035756;28;20582;-67
2022/05/17 02:36:22;;;;;;;4.17;3.87;;;12.50;1.00;;;;;;5035404;28;20438;-66
2022/05/17 02:38:49;;;;;;;3.70;3.40;;;12.60;1.00;;;;;;5034482;28;20229;-66
2022/05/17 02:41:17;;;;;;;4.07;3.33;;;12.60;1.00;;;;;;5035253;28;20944;-64
2022/05/17 02:43:46;;;;;;;3.23;3.03;;;12.60;1.00;;;;;;5035317;28;20384;-69
2022/05/17 02:46:13;;;;;;;3.93;3.50;;;12.70;1.00;;;;;;5035186;28;20878;-66
2022/05/17 02:48:38;;;;;;;3.00;2.80;;;12.70;1.00;;;;;;5034656;28;20900;-65
2022/05/17 02:51:13;;;;;;;4.90;3.93;;;12.80;1.00;;;;;;5035213;28;20377;-67
2022/05/17 02:53:39;;;;;;;9.23;3.93;;;12.80;1.00;;;;;;5034979;28;20434;-66
2022/05/17 02:56:04;;;;;;;3.47;3.20;;;12.90;1.00;;;;;;5035083;28;20870;-65
2022/05/17 02:58:30;;;;;;;4.03;3.63;;;12.90;1.00;;;;;;5033881;28;20548;-67
2022/05/17 03:00:56;;;;;;;4.20;3.40;;;12.90;1.00;;;;;;5034906;28;20492;-65
2022/05/17 03:03:21;;;;;;;6.57;3.70;;;13.00;1.00;;;;;;5034710;28;20226;-66
2022/05/17 03:05:47;;;;;;;4.20;3.80;;;13.00;1.00;;;;;;5035018;28;20175;-66
2022/05/17 03:08:13;;;;;;;4.10;3.70;;;13.00;1.00;;;;;;5033089;28;20203;-66
2022/05/17 03:10:38;;;;;;;3.57;3.33;;;13.00;1.00;;;;;;5034893;28;20171;-69
2022/05/17 03:13:04;;;;;;;4.27;3.63;;;12.90;1.00;;;;;;5034906;28;20167;-68
2022/05/17 03:15:29;;;;;;;3.60;3.30;;;12.90;1.00;;;;;;5034857;28;20203;-65
2022/05/17 03:17:55;;;;;;;3.13;2.87;;;12.90;1.00;;;;;;5033740;28;20203;-69
2022/05/17 03:20:21;;;;;;;4.20;3.50;;;12.90;1.00;;;;;;5034319;28;20221;-68
2022/05/17 03:22:47;;;;;;;4.03;3.70;;;12.80;1.00;;;;;;5033341;28;20163;-69
2022/05/17 03:25:12;;;;;;;5.13;3.87;;;12.80;1.00;;;;;;5034700;28;20242;-66
2022/05/17 03:27:38;;;;;;;4.40;3.70;;;12.80;1.00;;;;;;5033822;28;20270;-66
2022/05/17 03:30:06;;;;;;;6.00;3.77;;;12.80;1.00;;;;;;5034457;28;20337;-69
2022/05/17 03:32:31;;;;;;;4.17;3.87;;;12.80;1.00;;;;;;5034591;28;20376;-69
2022/05/17 03:34:57;;;;;;;4.03;3.73;;;12.80;1.00;;;;;;5034477;28;20748;-68
2022/05/17 03:37:23;;;;;;;3.60;3.13;;;12.80;1.00;;;;;;5033066;28;20222;-66
2022/05/17 03:39:48;;;;;;;4.97;4.00;;;12.80;1.00;;;;;;5032949;28;20163;-70
2022/05/17 03:42:14;;;;;;;4.30;3.83;;;12.80;1.00;;;;;;5034214;28;20163;-68
2022/05/17 03:44:40;;;;;;;4.07;3.77;;;12.90;1.00;;;;;;5032937;28;20172;-68
2022/05/17 03:47:07;;;;;;;4.13;3.47;;;13.00;1.00;;;;;;5033579;28;20172;-68
2022/05/17 03:49:34;;;;;;;4.50;3.40;;;13.00;1.00;;;;;;5033011;28;20422;-65
2022/05/17 03:51:59;;;;;;;3.20;3.00;;;13.00;1.00;;;;;;5033925;28;20411;-65
2022/05/17 03:54:25;;;;;;;4.80;3.50;;;12.90;1.00;;;;;;5033570;28;20406;-66
2022/05/17 03:56:51;;;;;;;6.83;3.50;;;13.00;1.00;;;;;;5033399;28;20205;-66
2022/05/17 03:59:17;;;;;;;3.80;3.17;;;13.00;1.00;;;;;;5032880;28;20405;-69
2022/05/17 04:01:44;;;;;;;6.90;3.30;;;13.00;1.00;;;;;;5033973;28;20163;-68
2022/05/17 04:04:10;;;;;;;7.47;3.47;;;13.10;1.00;;;;;;5033718;28;20250;-69
2022/05/17 04:06:36;;;;;;;6.00;3.73;;;13.10;1.00;;;;;;5033160;28;20380;-69
2022/05/17 04:09:02;;;;;;;4.57;3.70;;;13.10;1.00;;;;;;5032644;28;20430;-70
2022/05/17 04:11:28;;;;;;;6.50;3.80;;;13.10;1.00;;;;;;5033517;28;20179;-65
2022/05/17 04:13:54;;;;;;;4.13;3.83;;;13.20;1.00;;;;;;5032442;28;20775;-69
2022/05/17 04:16:19;;;;;;;5.10;3.57;;;13.20;1.00;;;;;;5032735;28;20175;-66
2022/05/17 04:18:46;;;;;;;6.57;3.70;;;13.20;1.00;;;;;;5033042;28;20742;-68
2022/05/17 04:21:12;;;;;;;6.63;3.30;;;13.20;1.00;;;;;;5033829;28;20202;-66
2022/05/17 04:23:38;;;;;;;4.20;3.57;;;13.30;1.00;;;;;;5033659;28;20398;-65
2022/05/17 04:26:04;;;;;;;7.57;3.17;;;13.30;1.00;;;;;;5032278;28;20418;-70
2022/05/17 04:28:30;;;;;;;3.77;3.40;;;13.40;1.00;;;;;;5032754;28;20405;-68
2022/05/17 04:30:56;;;;;;;3.87;2.97;;;13.40;1.00;;;;;;5033159;28;20197;-69
2022/05/17 04:33:22;;;;;;;4.33;3.37;;;13.40;1.00;;;;;;5032234;28;20784;-66
2022/05/17 04:35:48;;;;;;;4.73;3.63;;;13.40;1.00;;;;;;5033523;28;20167;-66
2022/05/17 04:38:14;;;;;;;4.30;3.60;;;13.40;1.00;;;;;;5032607;28;20973;-66
2022/05/17 04:40:41;;;;;;;3.10;2.90;;;13.40;1.00;;;;;;5033382;28;20172;-66
2022/05/17 04:43:07;;;;;;;5.33;3.53;;;13.50;1.00;;;;;;5033456;28;20156;-66
2022/05/17 04:45:33;;;;;;;5.90;3.60;;;13.50;1.00;;;;;;5033227;28;20904;-70
2022/05/17 04:47:59;;;;;;;4.40;4.00;;;13.50;1.00;;;;;;5030972;28;20401;-66
2022/05/17 04:50:24;;;;;;;4.30;3.27;;;13.50;1.00;;;;;;5033185;28;20163;-65
2022/05/17 04:52:50;;;;;;;3.30;3.00;;;13.60;1.00;;;;;;5033223;28;20167;-67
2022/05/17 04:55:46;;;;;;;3.70;3.40;;;13.60;1.00;;;;;;5033528;28;20171;-67
2022/05/17 04:58:12;;;;;;;4.00;2.77;;;13.40;1.00;;;;;;5032133;28;20215;-74
2022/05/17 05:00:38;;;;;;;3.90;3.43;;;13.30;1.00;;;;;;5032974;28;20412;-66
2022/05/17 05:03:04;;;;;;;4.00;3.47;;;13.30;1.00;;;;;;5032878;28;20163;-67
2022/05/17 05:05:30;;;;;;;3.70;3.40;;;13.40;1.00;;;;;;5033490;28;20179;-73
2022/05/17 05:07:56;;;;;;;4.10;3.80;;;13.50;1.00;;;;;;5032561;28;20414;-66
2022/05/17 05:10:22;;;;;;;3.70;3.33;;;13.50;1.00;;;;;;5033151;28;20381;-70
2022/05/17 05:12:48;;;;;;;6.03;3.57;;;13.60;1.00;;;;;;5033081;28;20590;-68
2022/05/17 05:15:15;;;;;;;5.90;3.10;;;13.60;4.20;;;;;;5033178;28;20517;-68
2022/05/17 05:17:41;;;;;;;4.50;3.70;;;13.60;1.00;;;;;;5032234;28;20441;-69
2022/05/17 05:20:10;;;;;;;4.80;3.87;;;13.50;1.00;;;;;;5033076;28;20406;-65
2022/05/17 05:22:37;;;;;;;10.73;3.80;;;13.50;8.10;;;;;;5031418;28;20401;-66
2022/05/17 05:25:03;;;;;;;3.90;2.93;;;13.60;12.10;;;;;;5033018;28;20418;-65
2022/05/17 05:27:36;;;;;;;4.87;4.40;;;13.60;21.30;;;;;;5034789;28;20417;-66
2022/05/17 05:30:05;;;;;;;3.77;3.47;;;13.70;23.50;;;;;;5036855;28;20536;-65
2022/05/17 05:32:31;;;;;;;4.57;3.73;;;13.70;20.30;;;;;;5036650;28;20859;-66
2022/05/17 05:34:56;;;;;;;4.23;3.87;;;13.60;20.80;;;;;;5036595;28;20400;-66
2022/05/17 05:37:22;;;;;;;6.03;4.23;;;13.70;20.70;;;;;;5035879;28;20257;-68
2022/05/17 05:39:48;;;;;;;8.23;4.83;;;13.80;28.70;;;;;;5035336;28;20627;-65
2022/05/17 05:42:14;;;;;;;6.70;4.00;;;13.80;27.70;;;;;;5036034;28;20414;-66
2022/05/17 05:44:39;;;;;;;3.90;3.37;;;13.80;35.80;;;;;;5036488;28;20175;-68
2022/05/17 05:47:05;;;;;;;8.63;5.03;;;13.80;35.90;;;;;;5035776;28;20177;-69
2022/05/17 05:49:31;;;;;;;6.83;4.40;;;13.90;36.00;;;;;;5036331;28;20192;-69
2022/05/17 05:51:57;;;;;;;4.30;3.90;;;13.90;36.30;;;;;;5036458;28;20403;-68
2022/05/17 05:54:22;;;;;;;8.00;4.37;;;13.90;36.50;;;;;;5036268;28;20207;-65
2022/05/17 05:56:48;;;;;;;5.50;4.23;;;14.00;51.10;;;;;;5035449;28;20180;-68
2022/05/17 05:59:14;;;;;;;3.87;3.50;;;14.10;56.40;;;;;;5035675;28;20187;-70
2022/05/17 06:01:40;;;;;;;4.77;4.30;;;14.20;60.70;;;;;;5036310;28;20871;-65
2022/05/17 06:04:06;;;;;;;6.03;4.10;;;14.30;60.90;;;;;;5036094;28;20178;-70
2022/05/17 06:06:32;;;;;;;3.50;3.20;;;14.40;52.70;;;;;;5035509;28;20172;-66
2022/05/17 06:08:58;;;;;;;4.23;3.33;;;14.40;36.70;;;;;;5035872;28;20757;-66
2022/05/17 06:11:24;;;;;;;3.50;3.20;;;14.40;4.10;;;;;;5036014;28;20429;-69
2022/05/17 06:13:50;;;;;;;4.10;3.70;;;14.50;1.00;;;;;;5035108;28;20422;-65
2022/05/17 06:16:16;;;;;;;3.43;2.90;;;14.60;1.00;;;;;;5035439;28;20667;-65
2022/05/17 06:18:42;;;;;;;6.30;3.43;;;14.70;1.00;;;;;;5035070;28;20687;-66
2022/05/17 06:21:08;;;;;;;3.80;2.87;;;14.80;1.00;;;;;;5035892;28;20453;-68
2022/05/17 06:23:35;;;;;;;5.33;3.30;;;14.80;1.00;;;;;;5034616;28;20843;-65
2022/05/17 06:26:01;;;;;;;7.53;3.10;;;14.90;1.00;;;;;;5035771;28;20407;-65
2022/05/17 06:28:27;;;;;;;5.10;3.13;;;15.00;1.00;;;;;;5035005;28;20426;-65
2022/05/17 06:30:53;;;;;;;3.33;3.03;;;15.10;1.00;;;;;;5034304;28;20418;-69
2022/05/17 06:33:19;;;;;;;6.20;3.40;;;15.20;1.00;;;;;;5035152;28;20172;-69
2022/05/17 06:35:45;;;;;;;4.33;3.13;;;15.40;1.00;;;;;;5035527;28;20732;-70
2022/05/17 06:38:13;;;;;;;5.10;2.70;;;15.40;1.00;;;;;;5033927;28;20466;-69
2022/05/17 06:40:39;;;;;;;7.80;3.23;;;15.40;1.00;;;;;;5035434;28;20463;-68
2022/05/17 06:43:04;;;;;;;5.27;3.40;;;15.40;1.00;;;;;;5035504;28;20403;-67
2022/05/17 06:45:31;;;;;;;5.63;3.27;;;15.40;1.00;;;;;;5034029;28;20186;-69
2022/05/17 06:47:56;;;;;;;5.43;3.50;;;15.30;1.00;;;;;;5034703;28;20195;-68
2022/05/17 06:50:22;;;;;;;7.30;3.30;;;15.10;1.00;;;;;;5033852;28;20819;-65
2022/05/17 06:52:48;;;;;;;4.67;3.67;;;14.90;1.00;;;;;;5035261;28;20180;-69
2022/05/17 06:55:15;;;;;;;4.97;4.07;;;14.80;1.00;;;;;;5035083;28;20175;-66
2022/05/17 06:57:40;;;;;;;3.60;3.30;;;14.90;1.00;;;;;;5033141;28;20436;-65
2022/05/17 07:00:08;;;;;;;6.10;3.93;;;15.10;1.00;;;;;;5035227;28;20402;-65
2022/05/17 07:02:35;;;;;;;5.97;3.17;;;15.10;1.00;;;;;;5034900;28;20176;-69
2022/05/17 07:05:01;;;;;;;4.50;3.90;;;15.00;1.00;;;;;;5035013;28;20406;-69
2022/05/17 07:07:33;;;;;;;5.00;3.90;;;14.80;1.00;;;;;;5033707;28;20748;-68
2022/05/17 07:15:27;;;;;;;6.03;3.80;;;14.70;1.00;;;;;;5034759;28;20501;-64
2022/05/17 07:17:53;;;;;;;3.47;3.23;;;14.90;1.00;;;;;;5033812;28;21037;-68
2022/05/17 07:20:19;;;;;;;9.60;4.30;;;15.10;1.00;;;;;;5034833;28;20640;-65
2022/05/17 07:22:45;;;;;;;7.10;4.33;;;15.30;1.00;;;;;;5034682;28;20441;-65
2022/05/17 07:25:11;;;;;;;6.67;3.70;;;15.50;1.00;;;;;;5034706;28;20175;-65
2022/05/17 07:27:37;;;;;;;4.43;4.00;;;15.60;1.00;;;;;;5033366;28;20175;-68
2022/05/17 07:30:05;;;;;;;4.87;4.47;;;15.50;1.00;;;;;;5034465;28;20450;-64
2022/05/17 07:32:30;;;;;;;3.47;3.20;;;15.40;1.00;;;;;;5034523;28;20414;-68
2022/05/17 07:34:56;;;;;;;4.53;3.87;;;15.40;1.00;;;;;;5033433;28;20425;-69
2022/05/17 07:37:22;;;;;;;5.70;3.90;;;15.50;1.00;;;;;;5033671;28;20807;-65
2022/05/17 07:39:48;;;;;;;4.13;3.70;;;15.40;1.00;;;;;;5034181;28;20389;-66
2022/05/17 07:42:14;;;;;;;4.03;3.23;;;15.40;1.00;;;;;;5034224;28;20175;-65
2022/05/17 07:44:40;;;;;;;4.50;3.90;;;15.40;1.00;;;;;;5034425;28;20186;-69
2022/05/17 07:47:06;;;;;;;7.20;3.70;;;15.40;1.00;;;;;;5031814;28;20779;-66
2022/05/17 07:49:33;;;;;;;4.83;3.33;;;15.20;1.00;;;;;;5033996;28;20188;-68
2022/05/17 07:51:59;;;;;;;3.63;3.30;;;15.10;1.00;;;;;;5033890;28;20406;-65
2022/05/17 07:54:25;;;;;;;4.77;3.10;;;14.90;1.00;;;;;;5034249;28;20381;-65
2022/05/17 07:56:51;;;;;;;5.23;3.43;;;14.90;1.00;;;;;;5033358;28;20898;-69
2022/05/17 07:59:17;;;;;;;5.60;3.33;;;14.80;1.00;;;;;;5033933;28;20215;-70
2022/05/17 08:01:43;;;;;;;3.83;3.60;;;14.90;1.00;;;;;;5033783;28;20441;-65
2022/05/17 08:04:09;;;;;;;9.60;3.50;;;14.90;1.00;;;;;;5033399;28;20172;-70
2022/05/17 08:06:35;;;;;;;4.73;3.23;;;15.00;1.00;;;;;;5033170;28;20536;-65
2022/05/17 08:09:02;;;;;;;4.50;3.40;;;15.10;1.00;;;;;;5033701;28;20718;-69
2022/05/17 08:11:28;;;;;;;13.20;3.20;;;15.20;1.00;;;;;;5032789;28;20846;-65
2022/05/17 08:13:54;;;;;;;5.60;4.10;;;15.30;1.00;;;;;;5033743;28;20420;-70
2022/05/17 08:16:20;;;;;;;4.87;4.47;;;15.40;1.00;;;;;;5033357;28;20576;-68
2022/05/17 08:18:45;;;;;;;5.90;4.13;;;15.40;1.00;;;;;;5031758;28;20564;-69
2022/05/17 08:21:12;;;;;;;3.87;3.47;;;15.40;1.00;;;;;;5033253;28;20478;-64
2022/05/17 08:23:38;;;;;;;5.20;3.67;;;15.30;1.00;;;;;;5033411;28;20434;-69
2022/05/17 08:28:48;;;;;;;3.50;3.00;;;15.40;1.00;;;;;;5033021;28;20193;-65
2022/05/17 08:31:14;;;;;;;6.73;2.83;;;15.20;1.00;;;;;;5033483;28;20489;-69
2022/05/17 08:33:40;;;;;;;7.10;3.43;;;15.20;1.00;;;;;;5033644;28;20185;-64
2022/05/17 08:36:09;;;;;;;4.43;3.50;;;15.20;1.00;;;;;;5033575;28;20180;-65
2022/05/17 08:38:39;;;;;;;7.07;3.40;;;15.30;1.00;;;;;;5032322;28;20466;-65
2022/05/17 08:41:23;;;;;;;3.47;2.80;;;15.30;1.00;;;;;;5032172;28;20400;-64
2022/05/17 08:43:51;;;;;;;6.40;3.07;;;15.30;1.00;;;;;;5032397;28;20422;-65
2022/05/17 08:46:43;;;;;;;3.17;2.73;;;15.30;1.00;;;;;;5033179;28;20413;-70
2022/05/17 08:49:28;;;;;;;3.60;3.10;;;15.40;1.00;;;;;;5032236;28;20523;-74
2022/05/17 08:52:09;;;;;;;3.13;2.83;;;15.50;1.00;;;;;;5033296;28;20422;-68
2022/05/17 08:54:38;;;;;;;2.87;2.67;;;15.70;1.00;;;;;;5032716;28;20878;-74
2022/05/17 08:57:32;;;;;;;3.60;2.83;;;15.70;1.00;;;;;;5032667;28;20410;-69
2022/05/17 09:00:06;;;;;;;2.53;2.37;;;15.80;1.00;;;;;;5033218;28;20409;-75
2022/05/17 09:02:50;;;;;;;5.70;3.57;;;15.80;1.00;;;;;;5035869;28;20398;-74
2022/05/17 09:05:30;;;;;;;4.33;2.80;;;15.80;1.00;;;;;;5037345;28;20381;-70
2022/05/17 09:08:09;;;;;;;3.90;3.00;;;15.90;1.00;;;;;;5036558;28;20467;-66
2022/05/17 09:10:35;;;;;;;3.17;2.73;;;15.80;1.00;;;;;;5036968;28;20409;-71
2022/05/17 09:13:38;;;;;;;3.93;3.47;;;15.90;1.00;;;;;;5037208;28;20410;-66
2022/05/17 09:16:04;;;;;;;3.93;2.77;;;16.00;1.00;;;;;;5037006;28;20413;-64
2022/05/17 09:18:31;;;;;;;2.43;2.20;;;15.80;1.00;;;;;;5036141;28;20545;-69
2022/05/17 09:20:57;;;;;;;7.50;3.00;;;15.90;1.00;;;;;;5036999;28;20420;-66
2022/05/17 09:23:23;;;;;;;5.00;2.50;;;16.10;1.00;;;;;;5037023;28;20402;-64
2022/05/17 09:26:07;;;;;;;3.63;2.30;;;16.20;1.00;;;;;;5037131;28;20394;-69
2022/05/17 09:29:11;;;;;;;2.53;2.33;;;16.40;1.00;;;;;;5036033;28;20585;-65
2022/05/17 09:31:37;;;;;;;3.90;2.17;;;16.60;1.00;;;;;;5035976;28;20429;-65
2022/05/17 09:34:08;;;;;;;5.53;2.47;;;16.80;1.00;;;;;;5036893;28;20552;-68
2022/05/17 09:36:49;;;;;;;6.17;2.80;;;16.90;1.00;;;;;;5036008;28;20417;-70
2022/05/17 09:39:20;;;;;;;4.23;3.43;;;16.90;1.00;;;;;;5036623;28;20440;-69
2022/05/17 09:45:35;;;;;;;6.50;2.63;;;16.80;1.00;;;;;;5051353;28;20413;-65
2022/05/17 09:48:04;;;;;;;3.47;2.73;;;16.90;1.00;;;;;;5035283;28;20430;-65
2022/05/17 09:53:48;;;;;;;2.97;2.47;;;16.50;99.90;;;;;;5036401;28;20401;-68
2022/05/17 09:56:16;;;;;;;6.20;2.87;;;16.50;99.90;;;;;;5034888;28;20854;-68
2022/05/17 09:58:44;;;;;;;2.90;2.63;;;16.30;99.90;;;;;;5035521;28;21058;-65
2022/05/17 10:01:12;;;;;;;4.07;3.53;;;16.40;99.90;;;;;;5034896;28;20418;-68
2022/05/17 10:03:41;;;;;;;6.30;2.77;;;16.30;99.90;;;;;;5036128;28;20409;-65
2022/05/17 10:06:30;;;;;;;3.93;2.83;;;16.30;99.90;;;;;;5035742;28;20417;-64
2022/05/17 10:09:12;;;;;;;3.13;2.70;;;16.20;99.90;;;;;;5034806;28;20434;-65
2022/05/17 10:12:00;;;;;;;5.70;3.10;;;16.10;99.90;;;;;;5036212;28;20479;-64
2022/05/17 10:14:33;;;;;;;5.03;3.33;;;16.10;99.90;;;;;;5033709;28;20414;-63
2022/05/17 10:17:09;;;;;;;3.70;3.00;;;16.10;99.90;;;;;;5035177;28;20454;-64
2022/05/17 10:19:53;;;;;;;2.80;2.60;;;16.00;99.90;;;;;;5036308;28;20415;-64
2022/05/17 10:22:34;;;;;;;3.73;3.37;;;16.00;99.90;;;;;;5035967;28;20406;-69
2022/05/17 10:25:07;;;;;;;8.77;2.63;;;15.90;99.90;;;;;;5035281;28;20407;-70
2022/05/17 10:27:44;;;;;;;3.63;2.80;;;15.90;99.90;;;;;;5034947;28;20395;-64
2022/05/17 10:30:19;;;;;;;3.07;2.87;;;16.10;99.90;;;;;;5035708;28;20960;-64
2022/05/17 10:33:01;;;;;;;4.00;2.70;;;16.10;99.90;;;;;;5035735;28;20933;-64
2022/05/17 10:35:35;;;;;;;4.97;2.90;;;16.20;99.90;;;;;;5035645;28;20398;-64
2022/05/17 10:38:16;;;;;;;3.30;3.00;;;16.20;99.90;;;;;;5033552;28;20458;-65
2022/05/17 10:40:46;;;;;;;5.30;3.47;;;16.30;99.90;;;;;;5034248;28;20413;-69
2022/05/17 10:43:20;;;;;;;2.83;2.63;;;16.30;99.90;;;;;;5034175;28;20907;-65
2022/05/17 10:45:50;;;;;;;4.00;3.10;;;16.40;99.90;;;;;;5033837;28;20767;-65
2022/05/17 10:48:35;;;;;;;7.10;3.27;;;16.50;99.90;;;;;;5034683;28;20435;-69
2022/05/17 10:51:05;;;;;;;5.83;3.73;;;16.60;99.90;;;;;;5035324;28;20429;-64
2022/05/17 10:53:49;;;;;;;6.93;2.90;;;16.60;99.90;;;;;;5035234;28;20411;-65
2022/05/17 10:56:22;;;;;;;3.57;2.73;;;16.80;99.90;;;;;;5034110;28;20414;-69
2022/05/17 10:58:59;;;;;;;3.93;2.90;;;16.80;99.90;;;;;;5034539;28;20454;-68
2022/05/17 11:01:37;;;;;;;3.87;2.57;;;16.60;99.90;;;;;;5034465;28;20406;-68
2022/05/17 11:04:33;;;;;;;3.53;2.57;;;16.60;99.90;;;;;;5035057;28;20394;-64
2022/05/17 11:07:15;;;;;;;9.90;3.00;;;16.60;99.90;;;;;;5034314;28;20946;-64
2022/05/17 11:10:02;;;;;;;2.97;2.77;;;16.60;99.90;;;;;;5034795;28;20794;-64
2022/05/17 11:12:39;;;;;;;2.60;2.40;;;16.70;99.90;;;;;;5033757;28;20930;-64
2022/05/17 11:18:59;;;;;;;4.23;3.43;;;16.80;99.90;;;;;;5033528;28;20491;-64
2022/05/17 11:21:42;;;;;;;3.53;2.93;;;16.90;99.90;;;;;;5034765;28;20418;-64
2022/05/17 11:24:23;;;;;;;3.40;3.00;;;17.00;99.90;;;;;;5033472;28;20915;-69
2022/05/17 11:26:57;;;;;;;4.30;3.70;;;17.00;99.90;;;;;;5034031;28;20410;-65
2022/05/17 11:29:47;;;;;;;5.60;3.80;;;17.10;99.90;;;;;;5034633;28;20508;-65
2022/05/17 11:32:18;;;;;;;5.07;3.13;;;17.20;99.90;;;;;;5034560;28;20410;-65
2022/05/17 11:34:47;;;;;;;5.57;2.50;;;17.30;99.90;;;;;;5034054;28;20472;-64
2022/05/17 11:37:36;;;;;;;4.23;2.80;;;17.40;99.90;;;;;;5032360;28;20442;-64
2022/05/17 11:40:10;;;;;;;6.50;3.40;;;17.30;99.90;;;;;;5034375;28;20395;-69
2022/05/17 11:43:40;;;;;;;3.60;3.30;;;17.30;99.90;;;;;;5034397;28;20493;-64
2022/05/17 11:45:50;;;;;;;7.83;3.30;;;17.30;99.90;;;;;;5034139;28;20798;-69
2022/05/17 11:48:19;;;;;;;6.33;3.70;;;17.30;99.90;;;;;;5033561;28;20522;-64
2022/05/17 11:50:56;;;;;;;3.50;2.90;;;17.30;99.90;;;;;;5032973;28;20406;-69
2022/05/17 11:53:25;;;;;;;5.27;3.93;;;17.20;99.90;;;;;;5034010;28;21009;-64
2022/05/17 11:56:13;;;;;;;4.77;3.50;;;17.30;99.90;;;;;;5032650;28;20407;-68
2022/05/17 11:58:40;;;;;;;19.17;3.70;;;17.30;99.90;;;;;;5033430;28;20488;-64
2022/05/17 12:01:31;;;;;;;4.07;2.83;;;17.30;99.90;;;;;;5034081;28;20413;-69
2022/05/17 12:04:04;;;;;;;4.23;3.87;;;17.40;99.90;;;;;;5033825;28;20394;-68
2022/05/17 12:06:38;;;;;;;6.17;2.87;;;17.30;99.90;;;;;;5033248;28;20918;-65
2022/05/17 12:09:20;;;;;;;5.30;2.90;;;17.40;99.90;;;;;;5033368;28;20917;-69
2022/05/17 12:12:04;;;;;;;3.83;3.10;;;17.50;99.90;;;;;;5033773;28;20406;-66
2022/05/17 12:14:58;;;;;;;5.30;3.57;;;17.60;99.90;;;;;;5032679;28;20422;-72
2022/05/17 12:17:34;;;;;;;4.23;3.77;;;17.60;99.90;;;;;;5032711;28;20458;-66
2022/05/17 12:20:11;;;;;;;4.20;3.67;;;17.40;99.90;;;;;;5033494;28;20936;-72
2022/05/17 12:22:48;;;;;;;3.90;3.60;;;17.40;99.90;;;;;;5033649;28;20488;-72
2022/05/17 12:25:22;;;;;;;4.83;3.33;;;17.30;99.90;;;;;;5033788;28;20398;-71
2022/05/17 12:27:54;;;;;;;4.33;3.93;;;17.40;99.90;;;;;;5032410;28;20521;-67
2022/05/17 12:30:54;;;;;;;5.10;3.70;;;17.50;99.90;;;;;;5033608;28;20963;-72
2022/05/17 12:33:26;;;;;;;5.00;4.13;;;17.60;99.90;;;;;;5032274;28;20422;-72
2022/05/17 12:35:56;;;;;;;8.63;4.30;;;17.60;99.90;;;;;;5032931;28;20427;-72
2022/05/17 12:44:15;;;;;;;5.77;4.33;;;17.90;99.90;;;;;;5032875;28;20932;-68
2022/05/17 12:46:44;;;;;;;6.70;3.73;;;18.00;99.90;;;;;;5031457;28;20406;-73
2022/05/17 12:49:31;;;;;;;5.43;3.93;;;18.00;99.90;;;;;;5033258;28;20430;-69
2022/05/17 12:52:00;;;;;;;6.80;3.90;;;18.20;99.90;;;;;;5032387;28;20441;-67
2022/05/17 12:54:31;;;;;;;5.13;3.40;;;18.40;99.90;;;;;;5033237;28;20903;-67
2022/05/17 12:56:58;;;;;;;5.10;4.57;;;18.40;99.90;;;;;;5032873;28;20441;-71
2022/05/17 12:59:32;;;;;;;4.93;4.03;;;18.30;99.90;;;;;;5033255;28;20478;-64
2022/05/17 13:02:00;;;;;;;4.70;4.30;;;18.50;99.90;;;;;;5032984;28;20432;-68
2022/05/17 13:04:30;;;;;;;5.10;4.27;;;18.60;99.90;;;;;;5032818;28;20432;-68
2022/05/17 13:07:12;;;;;;;4.50;4.00;;;18.70;99.90;;;;;;5032570;28;20430;-69
2022/05/17 13:16:45;;;;;;;5.47;3.90;;;18.90;99.90;;;;;;5033090;28;20386;-64
2022/05/17 13:22:33;;;;;;;5.93;4.30;;;18.50;99.90;;;;;;5033362;28;20524;-67
2022/05/17 13:25:06;;;;;;;4.73;4.33;;;18.50;99.90;;;;;;5033128;28;20438;-66
2022/05/17 13:27:37;;;;;;;4.73;4.00;;;18.40;99.90;;;;;;5032299;28;20425;-69
2022/05/17 13:30:07;;;;;;;4.10;3.70;;;18.50;99.90;;;;;;5033079;28;20395;-64
2022/05/17 13:32:37;;;;;;;6.00;3.87;;;18.90;99.90;;;;;;5031913;28;20501;-69
2022/05/17 13:35:12;;;;;;;5.00;4.03;;;19.20;99.90;;;;;;5032693;28;20438;-65
2022/05/17 13:38:02;;;;;;;4.73;3.70;;;19.10;99.90;;;;;;5032013;28;20456;-69
2022/05/17 13:40:38;;;;;;;4.70;3.40;;;18.90;99.90;;;;;;5032943;28;20419;-69
2022/05/17 13:43:36;;;;;;;11.87;3.27;;;19.00;99.90;;;;;;5032965;28;20394;-69
2022/05/17 13:46:10;;;;;;;4.40;3.43;;;19.30;99.90;;;;;;5032934;28;20398;-70